Sterling, MI

8:05 AM EDT on October 23, 2014 (GMT -0400)
Oscoda-Wurtsmith | Change Station
CLOSE
Current Station
Airport
Location: Oscoda,
Elevation: 633 ft
Nearby Weather Stations

Elev 633 ft 44.45 °N, 83.39 °W | Updated 12 minutes ago

Mostly Cloudy
Mostly Cloudy
25 °F
Feels Like 25 °F
N
0
Wind Variable Wind from North

Today
High -- | Low -- °F
--% Chance of Precip.
Yesterday
High -- | Low -- °F
Precip. -- in
8:00 AM 6:39 PM
Waning Crescent, 0% visible
Pressure 30.24 in
Visibility 10.0 miles
Clouds Clear
Dew Point 23 °F
Humidity 93%
Rainfall 0.00 in
Snow Depth Not available.
UV 0 out of 12
Pollen .30 out of 12
PM2.5 Good
Flu Activity Sporadic
METAR KOSC 231153Z AUTO 00000KT 10SM CLR M03/M05 A3024 RMK AO2 T10381048

More Conditions Fewer Conditions

Pressure 30.24 in
Visibility 10.0 miles
Clouds Clear
Dew Point 23 °F
Humidity 93%
Rainfall 0.00 in
Snow Depth Not available.
UV 0 out of 12
Pollen .30 out of 12
PM2.5 Good
Flu Activity Sporadic
METAR KOSC 231153Z AUTO 00000KT 10SM CLR M03/M05 A3024 RMK AO2 T10381048

More Conditions Fewer Conditions

Nowcast | as of 8:00 am EDT on October 23, 2014

At 9 am...mostly clear. Temperature 35. Light winds. At 11 am...clear. Temperature 43. Light winds. At 1 PM...mostly clear. Temperature 48. Light winds. At 3 PM...mostly clear. Temperature 53. Light winds.

×

10-Day Weather Forecast

Almanac

Astronomy

Oct. 23, 2014 Rise Set
Actual Time 8:00 AM EDT 6:39 PM EDT
Civil Twilight 7:31 AM EDT 7:08 PM EDT
Nautical Twilight 6:57 AM EDT 7:42 PM EDT
Astronomical Twilight 6:24 AM EDT 8:15 PM EDT
Moon 7:38 AM EDT 6:40 PM EDT
Length of Visible Light 11h 37m
Length of Day
10h 38m
Tomorrow will be 2m 50s shorter.
Waning Crescent, 0% of the Moon is Illuminated
Today
Waning Crescent
Oct 23
New
Oct 30
First Quarter
Nov 6
Full
Nov 14
Last Quarter

Today's Extremes

State Highs State Lows

Community

WunderPhotos

Upload Photos

1,764,209 photos uploaded!

Nearby

Air Quality

  Air Quality AQ Index Pollutant
Yesterday Good
PM2.5
Current Good
PM2.5
Thursday Good
PM2.5
Friday Good
PM2.5
Saturday Good
PM2.5
Sunday Good
PM2.5
Monday Good
PM2.5

Snow Depth

Station Depth Elevation
No new snow has been reported.

Earthquake Activity

City Distance Mag. Time & Date
No recent earthquake activity has been reported nearby.
Minimum magnitude displayed is 2.5.

Coastal Water Temperatures

Place Temperature
Harbor Beach, MI 48.0 °F

Nearby Weather Stations